createdAt,value
2018-09-26T00:01:01.870Z,4.67
2018-09-26T00:03:38.067Z,5.53
2018-09-26T00:06:07.171Z,4.97
2018-09-26T00:08:36.467Z,4.67
2018-09-26T00:11:05.337Z,5.17
2018-09-26T00:13:34.200Z,5.53
2018-09-26T00:16:03.142Z,4.90
2018-09-26T00:18:32.026Z,4.47
2018-09-26T00:21:01.038Z,4.47
2018-09-26T00:23:29.915Z,5.10
2018-09-26T00:25:58.812Z,4.37
2018-09-26T00:28:27.657Z,4.43
2018-09-26T00:30:56.574Z,4.90
2018-09-26T00:33:25.427Z,4.47
2018-09-26T00:35:54.482Z,5.13
2018-09-26T00:38:23.368Z,4.80
2018-09-26T00:40:52.442Z,4.30
2018-09-26T00:43:21.350Z,4.17
2018-09-26T00:45:50.265Z,4.07
2018-09-26T00:48:19.100Z,4.47
2018-09-26T00:50:47.963Z,3.90
2018-09-26T00:53:16.846Z,4.33
2018-09-26T00:55:45.823Z,3.60
2018-09-26T00:58:14.780Z,3.23
2018-09-26T01:00:43.723Z,3.07
2018-09-26T01:03:12.662Z,2.67
2018-09-26T01:05:41.637Z,3.50
2018-09-26T01:08:10.524Z,3.83
2018-09-26T01:10:39.385Z,3.93
2018-09-26T01:13:08.291Z,3.10
2018-09-26T01:15:37.210Z,2.90
2018-09-26T01:18:06.126Z,3.50
2018-09-26T01:20:34.967Z,3.27
2018-09-26T01:23:03.832Z,3.57
2018-09-26T01:25:32.714Z,3.57
2018-09-26T01:28:01.625Z,3.33
2018-09-26T01:30:30.522Z,3.20
2018-09-26T01:32:59.444Z,3.03
2018-09-26T01:35:28.327Z,3.20
2018-09-26T01:37:57.231Z,3.20
2018-09-26T01:40:26.214Z,3.87
2018-09-26T01:42:55.106Z,3.10
2018-09-26T01:45:24.278Z,3.00
2018-09-26T01:47:53.189Z,3.07
2018-09-26T01:50:22.211Z,3.03
2018-09-26T01:52:51.377Z,2.87
2018-09-26T01:55:20.322Z,2.70
2018-09-26T01:57:49.262Z,3.30
2018-09-26T02:00:18.126Z,2.20
2018-09-26T02:02:47.110Z,2.93
2018-09-26T02:05:16.103Z,3.23
2018-09-26T02:07:45.028Z,2.90
2018-09-26T02:10:13.933Z,3.07
2018-09-26T02:12:42.888Z,2.50
2018-09-26T02:15:11.765Z,2.67
2018-09-26T02:17:40.645Z,2.57
2018-09-26T02:20:09.578Z,2.67
2018-09-26T02:22:38.475Z,2.70
2018-09-26T02:25:07.493Z,2.90
2018-09-26T02:27:36.506Z,2.90
2018-09-26T02:30:05.447Z,2.70
2018-09-26T02:32:34.360Z,2.60
2018-09-26T02:35:03.255Z,2.50
2018-09-26T02:37:32.175Z,2.77
2018-09-26T02:40:01.094Z,2.50
2018-09-26T02:42:30.014Z,2.67
2018-09-26T02:44:58.919Z,2.40
2018-09-26T02:47:27.786Z,2.33
2018-09-26T02:49:56.735Z,2.57
2018-09-26T02:52:25.775Z,2.40
2018-09-26T02:54:54.675Z,2.17
2018-09-26T02:57:23.568Z,2.10
2018-09-26T02:59:52.506Z,2.83
2018-09-26T03:02:21.438Z,2.37
2018-09-26T03:04:50.371Z,2.50
2018-09-26T03:07:19.241Z,2.13
2018-09-26T03:09:48.153Z,2.50
2018-09-26T03:12:17.045Z,2.63
2018-09-26T03:14:46.038Z,2.03
2018-09-26T03:17:16.986Z,2.27
2018-09-26T03:19:45.926Z,2.27
2018-09-26T03:22:15.032Z,2.40
2018-09-26T03:24:44.439Z,2.50
2018-09-26T03:27:13.324Z,3.20
2018-09-26T03:29:42.248Z,2.90
2018-09-26T03:32:11.152Z,3.47
2018-09-26T03:34:40.059Z,2.87
2018-09-26T03:37:08.985Z,2.90
2018-09-26T03:39:37.860Z,2.87
2018-09-26T03:42:06.827Z,3.00
2018-09-26T03:44:35.688Z,2.80
2018-09-26T03:47:04.679Z,2.77
2018-09-26T03:49:33.654Z,2.83
2018-09-26T03:52:02.582Z,3.27
2018-09-26T03:54:31.455Z,3.07
2018-09-26T03:57:00.408Z,2.93
2018-09-26T03:59:29.357Z,3.90
2018-09-26T04:01:58.237Z,3.87
2018-09-26T04:04:27.138Z,3.60
2018-09-26T04:06:55.986Z,4.77
2018-09-26T04:09:24.876Z,5.47
2018-09-26T04:11:53.750Z,4.97
2018-09-26T04:14:22.683Z,3.93
2018-09-26T04:16:51.573Z,3.87
2018-09-26T04:19:20.510Z,3.67
2018-09-26T04:21:49.461Z,3.53
2018-09-26T04:24:18.556Z,3.83
2018-09-26T04:26:47.615Z,3.90
2018-09-26T04:29:16.485Z,3.80
2018-09-26T04:31:45.681Z,4.30
2018-09-26T04:34:14.574Z,4.03
2018-09-26T04:36:43.435Z,5.57
2018-09-26T04:39:13.275Z,4.77
2018-09-26T04:41:42.522Z,4.90
2018-09-26T04:44:11.437Z,5.73
2018-09-26T04:46:40.318Z,5.63
2018-09-26T04:49:09.250Z,5.13
2018-09-26T04:51:38.178Z,6.47
2018-09-26T04:54:07.331Z,6.70
2018-09-26T04:56:36.256Z,6.23
2018-09-26T04:59:05.172Z,5.87
2018-09-26T05:01:34.105Z,6.17
2018-09-26T05:04:02.925Z,6.30
2018-09-26T05:06:31.858Z,6.53
2018-09-26T05:09:00.673Z,7.27
2018-09-26T05:11:29.564Z,6.97
2018-09-26T05:13:58.584Z,6.87
2018-09-26T05:16:27.521Z,7.10
2018-09-26T05:18:56.474Z,7.33
2018-09-26T05:21:25.684Z,7.13
2018-09-26T05:23:54.559Z,7.63
2018-09-26T05:26:23.417Z,6.93
2018-09-26T05:28:52.281Z,7.97
2018-09-26T05:31:21.168Z,6.53
2018-09-26T05:33:50.102Z,6.83
2018-09-26T05:36:18.957Z,6.80
2018-09-26T05:38:47.939Z,9.70
2018-09-26T05:41:16.805Z,7.53
2018-09-26T05:43:45.652Z,7.53
2018-09-26T05:46:14.541Z,7.67
2018-09-26T05:48:43.472Z,7.60
2018-09-26T05:51:12.354Z,7.80
2018-09-26T05:53:41.287Z,7.63
2018-09-26T05:56:10.175Z,7.53
2018-09-26T05:58:39.068Z,7.87
2018-09-26T06:01:08.065Z,7.90
2018-09-26T06:03:36.982Z,7.93
2018-09-26T06:06:05.975Z,7.30
2018-09-26T06:08:34.831Z,7.07
2018-09-26T06:11:03.716Z,7.23
2018-09-26T06:13:32.538Z,7.17
2018-09-26T06:16:01.476Z,6.43
2018-09-26T06:18:30.331Z,6.03
2018-09-26T06:20:59.174Z,6.07
2018-09-26T06:23:28.140Z,6.20
2018-09-26T06:25:57.088Z,5.47
2018-09-26T06:28:26.080Z,5.83
2018-09-26T06:30:55.056Z,5.13
2018-09-26T06:33:24.225Z,6.40
2018-09-26T06:35:53.379Z,5.60
2018-09-26T06:38:22.366Z,5.60
2018-09-26T06:40:51.464Z,5.70
2018-09-26T06:43:20.555Z,6.10
2018-09-26T06:45:49.468Z,5.30
2018-09-26T06:48:18.597Z,5.50
2018-09-26T06:50:47.630Z,4.97
2018-09-26T06:53:16.624Z,5.13
2018-09-26T06:55:45.679Z,6.00
2018-09-26T06:58:15.319Z,5.43
2018-09-26T07:00:44.951Z,5.00
2018-09-26T07:03:13.981Z,4.80
2018-09-26T07:05:43.129Z,4.97
2018-09-26T07:08:12.453Z,4.47
2018-09-26T07:10:41.742Z,5.13
2018-09-26T07:13:15.561Z,4.67
2018-09-26T07:15:45.904Z,4.73
2018-09-26T07:18:15.013Z,4.80
2018-09-26T07:20:43.973Z,4.33
2018-09-26T07:23:13.042Z,4.20
2018-09-26T07:25:41.913Z,4.80
2018-09-26T07:28:10.846Z,4.83
2018-09-26T07:30:39.664Z,4.63
2018-09-26T07:33:08.515Z,4.30
2018-09-26T07:35:37.407Z,4.47
2018-09-26T07:38:06.459Z,4.83
2018-09-26T07:40:35.326Z,4.53
2018-09-26T07:43:04.214Z,4.77
2018-09-26T07:45:33.273Z,4.50
2018-09-26T07:48:02.217Z,4.07
2018-09-26T07:50:31.160Z,4.23
2018-09-26T07:53:00.039Z,4.40
2018-09-26T07:55:28.928Z,4.77
2018-09-26T07:57:57.884Z,3.63
2018-09-26T08:00:26.803Z,3.80
2018-09-26T08:02:55.670Z,3.77
2018-09-26T08:05:24.633Z,3.37
2018-09-26T08:07:53.480Z,3.00
2018-09-26T08:10:22.450Z,3.30
2018-09-26T08:12:51.473Z,3.10
2018-09-26T08:15:20.401Z,3.00
2018-09-26T08:17:49.211Z,3.10
2018-09-26T08:20:18.078Z,2.93
2018-09-26T08:22:46.972Z,2.17
2018-09-26T08:25:15.894Z,2.90
2018-09-26T08:27:44.790Z,2.20
2018-09-26T08:30:13.731Z,2.50
2018-09-26T08:32:42.593Z,2.60
2018-09-26T08:35:11.491Z,2.47
2018-09-26T08:37:40.523Z,2.57
2018-09-26T08:40:09.423Z,2.40
2018-09-26T08:42:38.311Z,2.60
2018-09-26T08:45:07.912Z,2.30
2018-09-26T08:47:36.885Z,2.40
2018-09-26T08:50:06.494Z,2.17
2018-09-26T08:52:35.434Z,1.73
2018-09-26T08:55:04.423Z,2.90
2018-09-26T08:57:33.355Z,2.07
2018-09-26T09:00:02.355Z,1.60
2018-09-26T09:02:31.185Z,1.53
2018-09-26T09:05:00.073Z,1.60
2018-09-26T09:07:28.952Z,1.73
2018-09-26T09:09:57.887Z,1.57
2018-09-26T09:12:26.865Z,1.27
2018-09-26T09:14:55.731Z,1.40
2018-09-26T09:17:24.697Z,1.50
2018-09-26T09:19:53.595Z,1.10
2018-09-26T09:22:22.456Z,1.47
2018-09-26T09:24:51.315Z,1.70
2018-09-26T09:27:21.051Z,1.20
2018-09-26T09:29:50.004Z,1.40
2018-09-26T09:32:18.889Z,1.33
2018-09-26T09:34:48.165Z,1.23
2018-09-26T09:37:16.974Z,0.87
2018-09-26T09:39:45.921Z,0.90
2018-09-26T09:42:14.827Z,0.90
2018-09-26T09:44:43.747Z,1.00
2018-09-26T09:47:12.608Z,1.27
2018-09-26T09:49:41.650Z,1.10
2018-09-26T09:52:10.566Z,1.10
2018-09-26T09:54:39.501Z,0.83
2018-09-26T09:57:08.521Z,1.47
2018-09-26T09:59:37.604Z,1.20
2018-09-26T10:02:06.652Z,1.10
2018-09-26T10:04:35.877Z,1.57
2018-09-26T10:07:04.758Z,1.07
2018-09-26T10:09:33.667Z,0.97
2018-09-26T10:12:02.542Z,1.53
2018-09-26T10:14:31.537Z,0.87
2018-09-26T10:17:00.963Z,1.10
2018-09-26T10:19:29.888Z,1.03
2018-09-26T10:21:58.741Z,1.00
2018-09-26T10:24:27.744Z,1.07
2018-09-26T10:26:56.661Z,0.93
2018-09-26T10:29:25.546Z,1.33
2018-09-26T10:31:54.441Z,1.10
2018-09-26T10:34:23.566Z,1.10
2018-09-26T10:36:52.546Z,0.90
2018-09-26T10:39:21.574Z,1.10
2018-09-26T10:41:50.414Z,1.00
2018-09-26T10:44:19.333Z,0.73
2018-09-26T10:46:48.259Z,3.30
2018-09-26T10:49:17.158Z,1.13
2018-09-26T10:51:46.094Z,0.90
2018-09-26T10:54:14.923Z,1.00
2018-09-26T10:56:43.819Z,1.30
2018-09-26T10:59:12.750Z,1.20
2018-09-26T11:01:41.573Z,0.93
2018-09-26T11:04:10.572Z,1.20
2018-09-26T11:06:39.516Z,1.60
2018-09-26T11:09:09.725Z,1.03
2018-09-26T11:11:38.649Z,1.20
2018-09-26T11:14:07.809Z,1.10
2018-09-26T11:16:36.636Z,1.10
2018-09-26T11:19:05.893Z,1.00
2018-09-26T11:21:34.796Z,1.13
2018-09-26T11:24:03.817Z,0.80
2018-09-26T11:26:32.712Z,1.20
2018-09-26T11:29:01.616Z,2.33
2018-09-26T11:31:30.425Z,0.80
2018-09-26T11:33:59.276Z,0.90
2018-09-26T11:36:28.167Z,1.20
2018-09-26T11:38:57.052Z,1.30
2018-09-26T11:43:49.079Z,0.90
2018-09-26T11:46:17.959Z,1.00
2018-09-26T11:48:46.933Z,0.90
2018-09-26T11:51:15.873Z,1.00
2018-09-26T11:53:44.987Z,0.90
2018-09-26T11:56:14.308Z,1.07
2018-09-26T11:58:43.629Z,1.17
2018-09-26T12:01:12.587Z,1.20
2018-09-26T12:03:42.061Z,1.23
2018-09-26T12:06:11.351Z,0.87
2018-09-26T12:08:40.201Z,0.90
2018-09-26T12:11:09.232Z,0.90
2018-09-26T12:13:38.311Z,1.00
2018-09-26T12:16:07.421Z,1.30
2018-09-26T12:18:36.278Z,1.07
2018-09-26T12:21:05.372Z,1.87
2018-09-26T12:23:34.209Z,1.13
2018-09-26T12:26:03.045Z,0.90
2018-09-26T12:28:31.901Z,1.03
2018-09-26T12:31:00.995Z,0.60
2018-09-26T12:33:30.173Z,0.90
2018-09-26T12:35:58.957Z,1.03
2018-09-26T12:38:27.858Z,0.97
2018-09-26T12:40:56.694Z,1.30
2018-09-26T12:43:25.626Z,0.87
2018-09-26T12:45:54.543Z,1.13
2018-09-26T12:48:23.637Z,1.30
2018-09-26T12:50:52.618Z,1.17
2018-09-26T12:53:22.045Z,1.30
2018-09-26T12:55:51.029Z,0.90
2018-09-26T12:58:21.197Z,0.90
2018-09-26T13:00:49.941Z,1.10
2018-09-26T13:03:18.814Z,1.20
2018-09-26T13:05:47.688Z,1.30
2018-09-26T13:08:16.544Z,1.20
2018-09-26T13:10:45.378Z,1.10
2018-09-26T13:13:14.359Z,1.10
2018-09-26T13:15:43.284Z,1.27
2018-09-26T13:18:12.121Z,1.20
2018-09-26T13:20:40.978Z,1.50
2018-09-26T13:23:09.798Z,1.40
2018-09-26T13:25:38.744Z,1.13
2018-09-26T13:28:07.646Z,1.27
2018-09-26T13:30:36.473Z,1.33
2018-09-26T13:33:05.306Z,1.70
2018-09-26T13:35:34.192Z,1.00
2018-09-26T13:38:02.981Z,1.00
2018-09-26T13:40:31.924Z,1.00
2018-09-26T13:43:00.959Z,1.20
2018-09-26T13:45:29.892Z,0.97
2018-09-26T13:47:58.809Z,1.10
2018-09-26T13:50:28.425Z,1.00
2018-09-26T13:53:08.492Z,1.37
2018-09-26T13:55:39.725Z,1.00
2018-09-26T13:58:10.130Z,1.20
2018-09-26T14:00:48.225Z,1.20
2018-09-26T14:03:43.966Z,1.20
2018-09-26T14:06:17.422Z,1.33
2018-09-26T14:08:50.918Z,1.00
2018-09-26T14:11:20.308Z,1.00
2018-09-26T14:14:03.285Z,1.13
2018-09-26T14:16:46.326Z,1.20
2018-09-26T14:19:17.000Z,1.00
2018-09-26T14:21:47.320Z,0.97
2018-09-26T14:24:16.317Z,1.10
2018-09-26T14:26:45.201Z,1.37
2018-09-26T14:29:17.620Z,1.03
2018-09-26T14:31:49.537Z,0.70
2018-09-26T14:34:19.251Z,1.00
2018-09-26T14:36:52.297Z,0.90
2018-09-26T14:39:24.878Z,0.60
2018-09-26T14:41:59.089Z,1.10
2018-09-26T14:44:31.479Z,1.67
2018-09-26T14:47:00.535Z,1.10
2018-09-26T14:49:29.622Z,1.10
2018-09-26T14:52:00.150Z,1.00
2018-09-26T14:54:32.818Z,1.20
2018-09-26T14:57:04.392Z,0.90
2018-09-26T14:59:34.897Z,1.13
2018-09-26T15:02:03.905Z,1.20
2018-09-26T15:04:32.816Z,1.70
2018-09-26T15:07:04.466Z,1.20
2018-09-26T15:09:39.567Z,1.60
2018-09-26T15:12:10.706Z,1.10
2018-09-26T15:14:48.220Z,1.10
2018-09-26T15:17:18.402Z,1.37
2018-09-26T15:19:49.493Z,1.00
2018-09-26T15:22:18.443Z,1.13
2018-09-26T15:24:51.841Z,1.53
2018-09-26T15:27:22.651Z,1.37
2018-09-26T15:30:03.254Z,1.20
2018-09-26T15:32:37.045Z,1.10
2018-09-26T15:35:07.941Z,1.47
2018-09-26T15:37:37.692Z,0.90
2018-09-26T15:40:08.908Z,1.27
2018-09-26T15:42:40.656Z,1.03
2018-09-26T15:45:09.547Z,2.03
2018-09-26T15:47:39.494Z,1.57
2018-09-26T15:50:09.821Z,1.20
2018-09-26T15:52:40.029Z,1.20
2018-09-26T15:55:28.543Z,1.80
2018-09-26T16:00:58.500Z,1.00
2018-09-26T16:03:27.436Z,1.13
2018-09-26T16:05:56.395Z,0.80
2018-09-26T16:08:25.579Z,1.23
2018-09-26T16:11:02.748Z,1.47
2018-09-26T16:13:42.169Z,1.23
2018-09-26T16:16:12.335Z,1.10
2018-09-26T16:18:53.831Z,1.87
2018-09-26T16:21:33.916Z,0.80
2018-09-26T16:24:12.103Z,1.20
2018-09-26T16:26:43.689Z,0.93
2018-09-26T16:29:19.144Z,1.03
2018-09-26T16:31:59.349Z,1.07
2018-09-26T16:34:30.511Z,1.60
2018-09-26T16:37:00.832Z,1.73
2018-09-26T16:39:32.920Z,2.00
2018-09-26T16:42:11.996Z,1.43
2018-09-26T16:44:45.522Z,1.27
2018-09-26T16:47:23.100Z,1.53
2018-09-26T16:49:53.279Z,1.30
2018-09-26T16:52:22.223Z,1.10
2018-09-26T16:54:51.137Z,1.30
2018-09-26T16:57:24.860Z,1.40
2018-09-26T16:59:55.857Z,10.53
2018-09-26T17:02:25.256Z,6.47
2018-09-26T17:04:54.351Z,4.00
2018-09-26T17:07:25.082Z,5.23
2018-09-26T17:09:58.092Z,3.10
2018-09-26T17:12:47.903Z,2.00
2018-09-26T17:15:30.494Z,1.60
2018-09-26T17:17:59.854Z,2.30
2018-09-26T17:20:29.552Z,1.40
2018-09-26T17:22:58.592Z,1.30
2018-09-26T17:25:27.449Z,1.50
2018-09-26T17:27:56.330Z,1.73
2018-09-26T17:30:25.460Z,1.67
2018-09-26T17:32:54.463Z,2.23
2018-09-26T17:35:23.317Z,1.80
2018-09-26T17:37:52.239Z,2.30
2018-09-26T17:40:21.136Z,2.30
2018-09-26T17:42:50.044Z,2.30
2018-09-26T17:45:18.966Z,2.40
2018-09-26T17:47:48.124Z,2.30
2018-09-26T17:50:18.718Z,1.70
2018-09-26T17:52:47.545Z,1.80
2018-09-26T17:55:16.437Z,2.60
2018-09-26T17:57:45.347Z,2.80
2018-09-26T18:00:14.261Z,5.53
2018-09-26T18:02:43.156Z,3.77
2018-09-26T18:05:12.300Z,3.10
2018-09-26T18:07:41.374Z,2.43
2018-09-26T18:10:10.957Z,1.90
2018-09-26T18:12:39.868Z,2.50
2018-09-26T18:15:08.913Z,1.90
2018-09-26T18:17:37.829Z,2.30
2018-09-26T18:20:07.080Z,1.73
2018-09-26T18:22:35.968Z,2.10
2018-09-26T18:25:05.755Z,1.77
2018-09-26T18:27:34.693Z,1.80
2018-09-26T18:30:03.779Z,2.30
2018-09-26T18:32:33.024Z,2.27
2018-09-26T18:35:01.956Z,2.40
2018-09-26T18:37:31.514Z,2.23
2018-09-26T18:40:00.406Z,2.80
2018-09-26T18:42:29.503Z,2.57
2018-09-26T18:44:58.465Z,3.30
2018-09-26T18:47:27.375Z,2.57
2018-09-26T18:49:56.279Z,2.77
2018-09-26T18:52:25.254Z,2.50
2018-09-26T18:54:55.139Z,2.20
2018-09-26T18:57:23.999Z,1.93
2018-09-26T18:59:53.258Z,2.10
2018-09-26T19:02:22.209Z,2.10
2018-09-26T19:04:51.201Z,1.80
2018-09-26T19:07:20.826Z,2.80
2018-09-26T19:09:49.734Z,3.23
2018-09-26T19:12:18.794Z,3.27
2018-09-26T19:14:47.763Z,3.43
2018-09-26T19:17:16.616Z,3.60
2018-09-26T19:19:47.210Z,4.97
2018-09-26T19:22:16.060Z,4.30
2018-09-26T19:24:44.927Z,4.63
2018-09-26T19:27:13.889Z,3.53
2018-09-26T19:29:42.793Z,4.93
2018-09-26T19:32:12.065Z,4.53
2018-09-26T19:34:41.152Z,4.33
2018-09-26T19:37:11.511Z,3.00
2018-09-26T19:39:40.332Z,3.40
2018-09-26T19:42:10.010Z,3.37
2018-09-26T19:44:39.007Z,3.60
2018-09-26T19:47:07.961Z,2.77
2018-09-26T19:49:36.855Z,2.40
2018-09-26T19:52:05.819Z,1.80
2018-09-26T19:54:34.795Z,1.80
2018-09-26T19:57:04.336Z,2.57
2018-09-26T19:59:34.357Z,2.57
2018-09-26T20:02:03.215Z,2.90
2018-09-26T20:04:32.099Z,2.77
2018-09-26T20:07:01.099Z,2.17
2018-09-26T20:09:29.963Z,1.77
2018-09-26T20:11:58.848Z,3.30
2018-09-26T20:14:27.698Z,2.07
2018-09-26T20:16:56.613Z,3.80
2018-09-26T20:19:25.522Z,3.83
2018-09-26T20:21:54.425Z,2.40
2018-09-26T20:24:23.412Z,2.33
2018-09-26T20:26:53.197Z,2.13
2018-09-26T20:29:22.073Z,1.83
2018-09-26T20:31:51.084Z,1.60
2018-09-26T20:34:20.076Z,1.67
2018-09-26T20:36:48.902Z,1.90
2018-09-26T20:39:17.824Z,1.27
2018-09-26T20:41:46.707Z,1.30
2018-09-26T20:44:15.569Z,1.40
2018-09-26T20:46:44.434Z,1.20
2018-09-26T20:49:13.495Z,1.30
2018-09-26T20:51:42.287Z,1.37
2018-09-26T20:54:11.141Z,1.40
2018-09-26T20:56:40.065Z,1.00
2018-09-26T20:59:08.868Z,1.20
2018-09-26T21:01:37.848Z,1.20
2018-09-26T21:04:06.840Z,1.20
2018-09-26T21:06:35.747Z,1.10
2018-09-26T21:09:05.668Z,1.27
2018-09-26T21:11:35.600Z,1.00
2018-09-26T21:14:04.899Z,1.37
2018-09-26T21:16:34.149Z,1.10
2018-09-26T21:19:03.552Z,1.27
2018-09-26T21:21:32.467Z,1.40
2018-09-26T21:24:01.579Z,1.43
2018-09-26T21:26:30.859Z,1.20
2018-09-26T21:29:00.351Z,1.37
2018-09-26T21:31:29.399Z,0.97
2018-09-26T21:33:59.338Z,1.00
2018-09-26T21:36:28.199Z,1.07
2018-09-26T21:38:58.115Z,0.97
2018-09-26T21:41:27.161Z,1.10
2018-09-26T21:43:56.235Z,1.30
2018-09-26T21:46:25.904Z,1.40
2018-09-26T21:48:55.415Z,1.30
2018-09-26T21:51:24.665Z,1.03
2018-09-26T21:53:54.681Z,1.60
2018-09-26T21:56:24.109Z,1.37
2018-09-26T21:58:54.979Z,1.33
2018-09-26T22:01:24.552Z,1.57
2018-09-26T22:03:53.756Z,1.23
2018-09-26T22:06:23.084Z,0.97
2018-09-26T22:08:52.593Z,0.87
2018-09-26T22:11:22.012Z,1.20
2018-09-26T22:13:51.979Z,1.53
2018-09-26T22:16:21.311Z,1.00
2018-09-26T22:18:51.331Z,1.10
2018-09-26T22:21:21.010Z,1.20
2018-09-26T22:23:50.450Z,1.50
2018-09-26T22:26:20.046Z,1.33
2018-09-26T22:28:50.597Z,1.33
2018-09-26T22:31:20.931Z,0.87
2018-09-26T22:33:50.419Z,1.47
2018-09-26T22:36:19.613Z,0.90
2018-09-26T22:38:51.050Z,1.57
2018-09-26T22:41:21.060Z,0.90
2018-09-26T22:43:50.968Z,1.13
2018-09-26T22:46:20.012Z,1.07
2018-09-26T22:48:49.037Z,1.63
2018-09-26T22:51:17.975Z,1.00
2018-09-26T22:53:46.866Z,1.13
2018-09-26T22:56:15.839Z,1.13
2018-09-26T22:58:44.724Z,1.00
2018-09-26T23:01:13.704Z,1.30
2018-09-26T23:03:43.427Z,1.20
2018-09-26T23:06:12.449Z,1.20
2018-09-26T23:08:41.680Z,1.20
2018-09-26T23:11:10.985Z,1.30
2018-09-26T23:13:39.902Z,1.63
2018-09-26T23:16:09.165Z,1.33
2018-09-26T23:18:38.205Z,1.10
2018-09-26T23:21:07.810Z,0.97
2018-09-26T23:23:36.718Z,1.67
2018-09-26T23:26:05.801Z,1.50
2018-09-26T23:28:34.744Z,1.20
2018-09-26T23:31:04.904Z,1.40
2018-09-26T23:33:33.821Z,1.53
2018-09-26T23:36:03.589Z,1.20
2018-09-26T23:38:32.865Z,1.00
2018-09-26T23:41:01.803Z,1.43
2018-09-26T23:43:30.886Z,1.70
2018-09-26T23:45:59.793Z,1.70
2018-09-26T23:48:28.770Z,1.37
2018-09-26T23:50:57.765Z,1.23
2018-09-26T23:53:26.776Z,1.40
2018-09-26T23:55:55.714Z,1.13
2018-09-26T23:58:24.706Z,1.10
